sensor_id;sensor_type;location;lat;lon;timestamp;temperature;humidity
16273;DHT22;8244;50.044;9.006;2023-12-04T00:04:41;-2.80;99.90
16273;DHT22;8244;50.044;9.006;2023-12-04T00:09:46;-2.80;99.90
16273;DHT22;8244;50.044;9.006;2023-12-04T00:14:48;-2.80;99.90
16273;DHT22;8244;50.044;9.006;2023-12-04T00:19:51;-2.80;99.90
16273;DHT22;8244;50.044;9.006;2023-12-04T00:24:53;-2.70;99.90
16273;DHT22;8244;50.044;9.006;2023-12-04T00:29:56;-2.70;99.90
16273;DHT22;8244;50.044;9.006;2023-12-04T00:34:59;-2.70;99.90
16273;DHT22;8244;50.044;9.006;2023-12-04T00:40:01;-2.70;99.90
16273;DHT22;8244;50.044;9.006;2023-12-04T00:45:05;-2.70;99.90
16273;DHT22;8244;50.044;9.006;2023-12-04T00:50:11;-2.80;99.90
16273;DHT22;8244;50.044;9.006;2023-12-04T00:55:13;-2.80;99.90
16273;DHT22;8244;50.044;9.006;2023-12-04T01:00:16;-2.80;99.90
16273;DHT22;8244;50.044;9.006;2023-12-04T01:05:19;-2.90;99.90
16273;DHT22;8244;50.044;9.006;2023-12-04T01:10:22;-2.90;99.90
16273;DHT22;8244;50.044;9.006;2023-12-04T01:15:24;-3.00;99.90
16273;DHT22;8244;50.044;9.006;2023-12-04T01:20:27;-3.00;99.90
16273;DHT22;8244;50.044;9.006;2023-12-04T01:25:30;-3.00;99.90
16273;DHT22;8244;50.044;9.006;2023-12-04T01:30:31;-3.10;99.90
16273;DHT22;8244;50.044;9.006;2023-12-04T01:35:35;-3.20;99.90
16273;DHT22;8244;50.044;9.006;2023-12-04T01:40:37;-3.20;99.90
16273;DHT22;8244;50.044;9.006;2023-12-04T01:45:39;-3.30;99.90
16273;DHT22;8244;50.044;9.006;2023-12-04T01:50:42;-3.30;99.90
16273;DHT22;8244;50.044;9.006;2023-12-04T01:55:44;-3.40;99.90
16273;DHT22;8244;50.044;9.006;2023-12-04T02:00:47;-3.50;99.90
16273;DHT22;8244;50.044;9.006;2023-12-04T02:05:51;-3.50;99.90
16273;DHT22;8244;50.044;9.006;2023-12-04T02:10:53;-3.50;99.90
16273;DHT22;8244;50.044;9.006;2023-12-04T02:15:57;-3.50;99.90
16273;DHT22;8244;50.044;9.006;2023-12-04T02:21:01;-3.50;99.90
16273;DHT22;8244;50.044;9.006;2023-12-04T02:26:09;-3.40;99.90
16273;DHT22;8244;50.044;9.006;2023-12-04T02:31:12;-3.40;99.90
16273;DHT22;8244;50.044;9.006;2023-12-04T02:36:14;-3.40;99.90
16273;DHT22;8244;50.044;9.006;2023-12-04T02:41:18;-3.40;99.90
16273;DHT22;8244;50.044;9.006;2023-12-04T02:46:21;-3.40;99.90
16273;DHT22;8244;50.044;9.006;2023-12-04T02:51:23;-3.40;99.90
16273;DHT22;8244;50.044;9.006;2023-12-04T02:56:32;-3.30;99.90
16273;DHT22;8244;50.044;9.006;2023-12-04T03:01:33;-3.40;99.90
16273;DHT22;8244;50.044;9.006;2023-12-04T03:06:35;-3.30;99.90
16273;DHT22;8244;50.044;9.006;2023-12-04T03:11:41;-3.40;99.90
16273;DHT22;8244;50.044;9.006;2023-12-04T03:16:42;-3.30;99.90
16273;DHT22;8244;50.044;9.006;2023-12-04T03:21:44;-3.30;99.90
16273;DHT22;8244;50.044;9.006;2023-12-04T03:26:47;-3.30;99.90
16273;DHT22;8244;50.044;9.006;2023-12-04T03:31:49;-3.20;99.90
16273;DHT22;8244;50.044;9.006;2023-12-04T03:36:53;-3.20;99.90
16273;DHT22;8244;50.044;9.006;2023-12-04T03:41:56;-3.10;99.90
16273;DHT22;8244;50.044;9.006;2023-12-04T03:46:58;-3.10;99.90
16273;DHT22;8244;50.044;9.006;2023-12-04T03:52:00;-3.10;99.90
16273;DHT22;8244;50.044;9.006;2023-12-04T03:57:04;-3.10;99.90
16273;DHT22;8244;50.044;9.006;2023-12-04T04:02:06;-3.10;99.90
16273;DHT22;8244;50.044;9.006;2023-12-04T04:07:08;-3.10;99.90
16273;DHT22;8244;50.044;9.006;2023-12-04T04:12:12;-3.10;99.90
16273;DHT22;8244;50.044;9.006;2023-12-04T04:17:13;-3.10;99.90
16273;DHT22;8244;50.044;9.006;2023-12-04T04:22:15;-3.10;99.90
16273;DHT22;8244;50.044;9.006;2023-12-04T04:27:18;-3.10;99.90
16273;DHT22;8244;50.044;9.006;2023-12-04T04:32:20;-3.10;99.90
16273;DHT22;8244;50.044;9.006;2023-12-04T04:37:23;-3.20;99.90
16273;DHT22;8244;50.044;9.006;2023-12-04T04:42:26;-3.20;99.90
16273;DHT22;8244;50.044;9.006;2023-12-04T04:47:29;-3.20;99.90
16273;DHT22;8244;50.044;9.006;2023-12-04T04:52:30;-3.20;99.90
16273;DHT22;8244;50.044;9.006;2023-12-04T04:57:35;-3.20;99.90
16273;DHT22;8244;50.044;9.006;2023-12-04T05:02:36;-3.20;99.90
16273;DHT22;8244;50.044;9.006;2023-12-04T05:07:38;-3.20;99.90
16273;DHT22;8244;50.044;9.006;2023-12-04T05:12:41;-3.30;99.90
16273;DHT22;8244;50.044;9.006;2023-12-04T05:17:43;-3.20;99.90
16273;DHT22;8244;50.044;9.006;2023-12-04T05:22:45;-3.20;99.90
16273;DHT22;8244;50.044;9.006;2023-12-04T05:27:48;-3.20;99.90
16273;DHT22;8244;50.044;9.006;2023-12-04T05:32:50;-3.20;99.90
16273;DHT22;8244;50.044;9.006;2023-12-04T05:37:51;-3.20;99.90
16273;DHT22;8244;50.044;9.006;2023-12-04T05:42:54;-3.20;99.90
16273;DHT22;8244;50.044;9.006;2023-12-04T05:47:56;-3.10;99.90
16273;DHT22;8244;50.044;9.006;2023-12-04T05:52:58;-3.10;99.90
16273;DHT22;8244;50.044;9.006;2023-12-04T05:58:01;-3.10;99.90
16273;DHT22;8244;50.044;9.006;2023-12-04T06:03:03;-3.10;99.90
16273;DHT22;8244;50.044;9.006;2023-12-04T06:08:06;-3.10;99.90
16273;DHT22;8244;50.044;9.006;2023-12-04T06:13:09;-3.10;99.90
16273;DHT22;8244;50.044;9.006;2023-12-04T06:18:11;-3.10;99.90
16273;DHT22;8244;50.044;9.006;2023-12-04T06:23:13;-3.10;99.90
16273;DHT22;8244;50.044;9.006;2023-12-04T06:28:17;-3.10;99.90
16273;DHT22;8244;50.044;9.006;2023-12-04T06:33:19;-3.10;99.90
16273;DHT22;8244;50.044;9.006;2023-12-04T06:38:24;-3.10;99.90
16273;DHT22;8244;50.044;9.006;2023-12-04T06:43:29;-3.20;99.90
16273;DHT22;8244;50.044;9.006;2023-12-04T06:48:31;-3.20;99.90
16273;DHT22;8244;50.044;9.006;2023-12-04T06:53:33;-3.20;99.90
16273;DHT22;8244;50.044;9.006;2023-12-04T06:58:36;-3.20;99.90
16273;DHT22;8244;50.044;9.006;2023-12-04T07:03:38;-3.20;99.90
16273;DHT22;8244;50.044;9.006;2023-12-04T07:08:40;-3.20;99.90
16273;DHT22;8244;50.044;9.006;2023-12-04T07:13:43;-3.20;99.90
16273;DHT22;8244;50.044;9.006;2023-12-04T07:18:45;-3.10;99.90
16273;DHT22;8244;50.044;9.006;2023-12-04T07:23:46;-3.20;99.90
16273;DHT22;8244;50.044;9.006;2023-12-04T07:28:50;-3.20;99.90
16273;DHT22;8244;50.044;9.006;2023-12-04T07:33:52;-3.10;99.90
16273;DHT22;8244;50.044;9.006;2023-12-04T07:38:53;-3.10;99.90
16273;DHT22;8244;50.044;9.006;2023-12-04T07:43:56;-3.00;99.90
16273;DHT22;8244;50.044;9.006;2023-12-04T07:49:00;-2.90;99.90
16273;DHT22;8244;50.044;9.006;2023-12-04T07:54:02;-2.80;99.90
16273;DHT22;8244;50.044;9.006;2023-12-04T07:59:06;-2.70;99.90
16273;DHT22;8244;50.044;9.006;2023-12-04T08:04:08;-2.70;99.90
16273;DHT22;8244;50.044;9.006;2023-12-04T08:09:10;-2.50;99.90
16273;DHT22;8244;50.044;9.006;2023-12-04T08:14:14;-2.40;99.90
16273;DHT22;8244;50.044;9.006;2023-12-04T08:19:18;-2.30;99.90
16273;DHT22;8244;50.044;9.006;2023-12-04T08:24:19;-2.20;99.90
16273;DHT22;8244;50.044;9.006;2023-12-04T08:29:23;-2.10;99.90
16273;DHT22;8244;50.044;9.006;2023-12-04T08:34:25;-1.90;99.90
16273;DHT22;8244;50.044;9.006;2023-12-04T08:39:27;-1.90;99.90
16273;DHT22;8244;50.044;9.006;2023-12-04T08:44:30;-1.80;99.90
16273;DHT22;8244;50.044;9.006;2023-12-04T08:49:32;-1.70;99.90
16273;DHT22;8244;50.044;9.006;2023-12-04T08:54:34;-1.50;99.90
16273;DHT22;8244;50.044;9.006;2023-12-04T08:59:37;-1.40;99.90
16273;DHT22;8244;50.044;9.006;2023-12-04T09:04:39;-1.30;99.90
16273;DHT22;8244;50.044;9.006;2023-12-04T09:09:41;-1.20;99.90
16273;DHT22;8244;50.044;9.006;2023-12-04T09:14:45;-1.10;99.90
16273;DHT22;8244;50.044;9.006;2023-12-04T09:19:48;-0.90;99.90
16273;DHT22;8244;50.044;9.006;2023-12-04T09:24:50;-0.70;99.90
16273;DHT22;8244;50.044;9.006;2023-12-04T09:29:56;-0.60;99.90
16273;DHT22;8244;50.044;9.006;2023-12-04T09:34:58;-0.50;99.90
16273;DHT22;8244;50.044;9.006;2023-12-04T09:40:00;-0.30;99.90
16273;DHT22;8244;50.044;9.006;2023-12-04T09:45:05;-0.30;99.90
16273;DHT22;8244;50.044;9.006;2023-12-04T09:50:09;-0.20;99.90
16273;DHT22;8244;50.044;9.006;2023-12-04T09:55:11;-0.30;99.90
16273;DHT22;8244;50.044;9.006;2023-12-04T10:00:15;-0.30;99.90
16273;DHT22;8244;50.044;9.006;2023-12-04T10:05:18;-0.20;99.90
16273;DHT22;8244;50.044;9.006;2023-12-04T10:10:21;-0.30;99.90
16273;DHT22;8244;50.044;9.006;2023-12-04T10:15:24;-0.40;99.90
16273;DHT22;8244;50.044;9.006;2023-12-04T10:20:26;-0.40;99.90
16273;DHT22;8244;50.044;9.006;2023-12-04T10:25:30;-0.30;99.90
16273;DHT22;8244;50.044;9.006;2023-12-04T10:30:34;-0.30;99.90
16273;DHT22;8244;50.044;9.006;2023-12-04T10:35:36;-0.30;99.90
16273;DHT22;8244;50.044;9.006;2023-12-04T10:40:38;-0.30;99.90
16273;DHT22;8244;50.044;9.006;2023-12-04T10:45:42;-0.20;99.90
16273;DHT22;8244;50.044;9.006;2023-12-04T10:50:47;-0.20;99.90
16273;DHT22;8244;50.044;9.006;2023-12-04T10:55:49;-0.10;99.90
16273;DHT22;8244;50.044;9.006;2023-12-04T11:00:55;0.00;99.90
16273;DHT22;8244;50.044;9.006;2023-12-04T11:06:00;0.00;99.90
16273;DHT22;8244;50.044;9.006;2023-12-04T11:11:04;0.10;99.90
16273;DHT22;8244;50.044;9.006;2023-12-04T11:16:15;0.10;99.90
16273;DHT22;8244;50.044;9.006;2023-12-04T11:21:20;0.20;99.90
16273;DHT22;8244;50.044;9.006;2023-12-04T11:26:23;0.20;99.90
16273;DHT22;8244;50.044;9.006;2023-12-04T11:31:26;0.30;99.90
16273;DHT22;8244;50.044;9.006;2023-12-04T11:36:29;0.40;99.90
16273;DHT22;8244;50.044;9.006;2023-12-04T11:41:31;0.60;99.90
16273;DHT22;8244;50.044;9.006;2023-12-04T11:46:34;0.70;99.90
16273;DHT22;8244;50.044;9.006;2023-12-04T11:51:45;0.70;99.90
16273;DHT22;8244;50.044;9.006;2023-12-04T11:57:00;0.70;99.90
16273;DHT22;8244;50.044;9.006;2023-12-04T12:02:07;0.60;99.90
16273;DHT22;8244;50.044;9.006;2023-12-04T12:07:11;0.60;99.90
16273;DHT22;8244;50.044;9.006;2023-12-04T12:12:13;0.60;99.90
16273;DHT22;8244;50.044;9.006;2023-12-04T12:17:17;0.60;99.90
16273;DHT22;8244;50.044;9.006;2023-12-04T12:22:18;0.70;99.90
16273;DHT22;8244;50.044;9.006;2023-12-04T12:27:20;0.60;99.90
16273;DHT22;8244;50.044;9.006;2023-12-04T12:32:23;0.60;99.90
16273;DHT22;8244;50.044;9.006;2023-12-04T12:37:28;0.40;99.90
16273;DHT22;8244;50.044;9.006;2023-12-04T12:42:30;0.30;99.90
16273;DHT22;8244;50.044;9.006;2023-12-04T12:47:35;0.10;99.90
16273;DHT22;8244;50.044;9.006;2023-12-04T12:52:37;0.10;99.90
16273;DHT22;8244;50.044;9.006;2023-12-04T12:57:40;0.10;99.90
16273;DHT22;8244;50.044;9.006;2023-12-04T13:02:44;-0.10;99.90
16273;DHT22;8244;50.044;9.006;2023-12-04T13:07:54;-0.20;99.90
16273;DHT22;8244;50.044;9.006;2023-12-04T13:12:57;-0.30;99.90
16273;DHT22;8244;50.044;9.006;2023-12-04T13:18:03;-0.30;99.90
16273;DHT22;8244;50.044;9.006;2023-12-04T13:23:05;-0.30;99.90
16273;DHT22;8244;50.044;9.006;2023-12-04T13:28:06;-0.30;99.90
16273;DHT22;8244;50.044;9.006;2023-12-04T13:33:10;-0.20;99.90
16273;DHT22;8244;50.044;9.006;2023-12-04T13:38:14;-0.20;99.90
16273;DHT22;8244;50.044;9.006;2023-12-04T13:43:15;-0.20;99.90
16273;DHT22;8244;50.044;9.006;2023-12-04T13:48:36;-0.10;99.90
16273;DHT22;8244;50.044;9.006;2023-12-04T13:53:40;-0.20;99.90
16273;DHT22;8244;50.044;9.006;2023-12-04T13:59:06;-0.10;99.90
16273;DHT22;8244;50.044;9.006;2023-12-04T14:04:59;-0.10;99.90
16273;DHT22;8244;50.044;9.006;2023-12-04T14:16:00;-0.20;99.90
16273;DHT22;8244;50.044;9.006;2023-12-04T14:21:07;-0.20;99.90
16273;DHT22;8244;50.044;9.006;2023-12-04T14:26:11;-0.20;99.90
16273;DHT22;8244;50.044;9.006;2023-12-04T14:31:30;-0.20;99.90
16273;DHT22;8244;50.044;9.006;2023-12-04T14:49:44;-0.30;99.90
16273;DHT22;8244;50.044;9.006;2023-12-04T14:54:46;-0.30;99.90
16273;DHT22;8244;50.044;9.006;2023-12-04T15:00:13;-0.20;99.90
16273;DHT22;8244;50.044;9.006;2023-12-04T15:05:36;-0.20;99.90
16273;DHT22;8244;50.044;9.006;2023-12-04T15:11:19;-0.20;99.90
16273;DHT22;8244;50.044;9.006;2023-12-04T15:16:41;-0.20;99.90
16273;DHT22;8244;50.044;9.006;2023-12-04T15:21:49;-0.20;99.90
16273;DHT22;8244;50.044;9.006;2023-12-04T15:26:51;-0.20;99.90
16273;DHT22;8244;50.044;9.006;2023-12-04T15:31:53;-0.20;99.90
16273;DHT22;8244;50.044;9.006;2023-12-04T15:36:57;-0.20;99.90
16273;DHT22;8244;50.044;9.006;2023-12-04T15:41:59;-0.20;99.90
16273;DHT22;8244;50.044;9.006;2023-12-04T15:47:02;-0.20;99.90
16273;DHT22;8244;50.044;9.006;2023-12-04T15:52:05;-0.20;99.90
16273;DHT22;8244;50.044;9.006;2023-12-04T15:57:08;-0.30;99.90
16273;DHT22;8244;50.044;9.006;2023-12-04T16:02:10;-0.30;99.90
16273;DHT22;8244;50.044;9.006;2023-12-04T16:07:14;-0.30;99.90
16273;DHT22;8244;50.044;9.006;2023-12-04T16:12:17;-0.20;99.90
16273;DHT22;8244;50.044;9.006;2023-12-04T16:17:18;-0.20;99.90
16273;DHT22;8244;50.044;9.006;2023-12-04T16:22:21;-0.20;99.90
16273;DHT22;8244;50.044;9.006;2023-12-04T16:27:59;-0.10;99.90
16273;DHT22;8244;50.044;9.006;2023-12-04T16:33:17;-0.10;99.90
16273;DHT22;8244;50.044;9.006;2023-12-04T16:38:26;0.00;99.90
16273;DHT22;8244;50.044;9.006;2023-12-04T16:43:31;0.00;99.90
16273;DHT22;8244;50.044;9.006;2023-12-04T16:48:34;0.00;99.90
16273;DHT22;8244;50.044;9.006;2023-12-04T16:53:37;0.00;99.90
16273;DHT22;8244;50.044;9.006;2023-12-04T16:58:40;0.00;99.90
16273;DHT22;8244;50.044;9.006;2023-12-04T17:03:42;0.00;99.90
16273;DHT22;8244;50.044;9.006;2023-12-04T17:08:46;0.00;99.90
16273;DHT22;8244;50.044;9.006;2023-12-04T17:13:47;0.00;99.90
16273;DHT22;8244;50.044;9.006;2023-12-04T17:18:49;-0.10;99.90
16273;DHT22;8244;50.044;9.006;2023-12-04T17:23:52;0.00;99.90
16273;DHT22;8244;50.044;9.006;2023-12-04T17:28:55;0.00;99.90
16273;DHT22;8244;50.044;9.006;2023-12-04T17:34:01;0.00;99.90
16273;DHT22;8244;50.044;9.006;2023-12-04T17:39:06;0.00;99.90
16273;DHT22;8244;50.044;9.006;2023-12-04T17:44:08;0.00;99.90
16273;DHT22;8244;50.044;9.006;2023-12-04T17:49:11;0.00;99.90
16273;DHT22;8244;50.044;9.006;2023-12-04T17:54:15;0.10;99.90
16273;DHT22;8244;50.044;9.006;2023-12-04T17:59:18;0.10;99.90
16273;DHT22;8244;50.044;9.006;2023-12-04T18:04:19;0.10;99.90
16273;DHT22;8244;50.044;9.006;2023-12-04T18:09:23;0.10;99.90
16273;DHT22;8244;50.044;9.006;2023-12-04T18:14:24;0.10;99.90
16273;DHT22;8244;50.044;9.006;2023-12-04T18:19:26;0.10;99.90
16273;DHT22;8244;50.044;9.006;2023-12-04T18:24:29;0.10;99.90
16273;DHT22;8244;50.044;9.006;2023-12-04T18:29:31;0.10;99.90
16273;DHT22;8244;50.044;9.006;2023-12-04T18:34:33;0.20;99.90
16273;DHT22;8244;50.044;9.006;2023-12-04T18:39:37;0.20;99.90
16273;DHT22;8244;50.044;9.006;2023-12-04T18:44:40;0.20;99.90
16273;DHT22;8244;50.044;9.006;2023-12-04T18:49:43;0.30;99.90
16273;DHT22;8244;50.044;9.006;2023-12-04T18:54:46;0.30;99.90
16273;DHT22;8244;50.044;9.006;2023-12-04T18:59:48;0.40;99.90
16273;DHT22;8244;50.044;9.006;2023-12-04T19:04:50;0.40;99.90
16273;DHT22;8244;50.044;9.006;2023-12-04T19:09:53;0.40;99.90
16273;DHT22;8244;50.044;9.006;2023-12-04T19:14:55;0.50;99.90
16273;DHT22;8244;50.044;9.006;2023-12-04T19:19:57;0.50;99.90
16273;DHT22;8244;50.044;9.006;2023-12-04T19:25:00;0.50;99.90
16273;DHT22;8244;50.044;9.006;2023-12-04T19:30:02;0.60;99.90
16273;DHT22;8244;50.044;9.006;2023-12-04T19:35:05;0.60;99.90
16273;DHT22;8244;50.044;9.006;2023-12-04T19:40:12;0.60;99.90
16273;DHT22;8244;50.044;9.006;2023-12-04T19:45:17;0.60;99.90
16273;DHT22;8244;50.044;9.006;2023-12-04T19:50:19;0.60;99.90
16273;DHT22;8244;50.044;9.006;2023-12-04T19:55:22;0.60;99.90
16273;DHT22;8244;50.044;9.006;2023-12-04T20:00:24;0.60;99.90
16273;DHT22;8244;50.044;9.006;2023-12-04T20:05:27;0.60;99.90
16273;DHT22;8244;50.044;9.006;2023-12-04T20:10:30;0.60;99.90
16273;DHT22;8244;50.044;9.006;2023-12-04T20:15:32;0.60;99.90
16273;DHT22;8244;50.044;9.006;2023-12-04T20:20:33;0.60;99.90
16273;DHT22;8244;50.044;9.006;2023-12-04T20:25:39;0.60;99.90
16273;DHT22;8244;50.044;9.006;2023-12-04T20:30:43;0.50;99.90
16273;DHT22;8244;50.044;9.006;2023-12-04T20:35:45;0.60;99.90
16273;DHT22;8244;50.044;9.006;2023-12-04T20:40:48;0.60;99.90
16273;DHT22;8244;50.044;9.006;2023-12-04T20:45:50;0.60;99.90
16273;DHT22;8244;50.044;9.006;2023-12-04T20:50:52;0.60;99.90
16273;DHT22;8244;50.044;9.006;2023-12-04T20:55:55;0.60;99.90
16273;DHT22;8244;50.044;9.006;2023-12-04T21:00:57;0.60;99.90
16273;DHT22;8244;50.044;9.006;2023-12-04T21:06:01;0.60;99.90
16273;DHT22;8244;50.044;9.006;2023-12-04T21:11:05;0.60;99.90
16273;DHT22;8244;50.044;9.006;2023-12-04T21:16:08;0.60;99.90
16273;DHT22;8244;50.044;9.006;2023-12-04T21:21:10;0.60;99.90
16273;DHT22;8244;50.044;9.006;2023-12-04T21:26:14;0.50;99.90
16273;DHT22;8244;50.044;9.006;2023-12-04T21:31:16;0.50;99.90
16273;DHT22;8244;50.044;9.006;2023-12-04T21:36:18;0.60;99.90
16273;DHT22;8244;50.044;9.006;2023-12-04T21:41:22;0.50;99.90
16273;DHT22;8244;50.044;9.006;2023-12-04T21:46:24;0.60;99.90
16273;DHT22;8244;50.044;9.006;2023-12-04T21:51:27;0.60;99.90
16273;DHT22;8244;50.044;9.006;2023-12-04T21:56:30;0.60;99.90
16273;DHT22;8244;50.044;9.006;2023-12-04T22:01:32;0.60;99.90
16273;DHT22;8244;50.044;9.006;2023-12-04T22:06:34;0.60;99.90
16273;DHT22;8244;50.044;9.006;2023-12-04T22:11:37;0.60;99.90
16273;DHT22;8244;50.044;9.006;2023-12-04T22:16:39;0.70;99.90
16273;DHT22;8244;50.044;9.006;2023-12-04T22:21:41;0.70;99.90
16273;DHT22;8244;50.044;9.006;2023-12-04T22:26:44;0.70;99.90
16273;DHT22;8244;50.044;9.006;2023-12-04T22:31:46;0.70;99.90
16273;DHT22;8244;50.044;9.006;2023-12-04T22:36:48;0.70;99.90
16273;DHT22;8244;50.044;9.006;2023-12-04T22:41:51;0.70;99.90
16273;DHT22;8244;50.044;9.006;2023-12-04T22:46:53;0.70;99.90
16273;DHT22;8244;50.044;9.006;2023-12-04T22:51:54;0.70;99.90
16273;DHT22;8244;50.044;9.006;2023-12-04T22:56:58;0.70;99.90
16273;DHT22;8244;50.044;9.006;2023-12-04T23:01:59;0.70;99.90
16273;DHT22;8244;50.044;9.006;2023-12-04T23:07:01;0.70;99.90
16273;DHT22;8244;50.044;9.006;2023-12-04T23:12:05;0.80;99.90
16273;DHT22;8244;50.044;9.006;2023-12-04T23:17:07;0.80;99.90
16273;DHT22;8244;50.044;9.006;2023-12-04T23:22:08;0.80;99.90
16273;DHT22;8244;50.044;9.006;2023-12-04T23:27:13;0.80;99.90
16273;DHT22;8244;50.044;9.006;2023-12-04T23:32:14;0.90;99.90
16273;DHT22;8244;50.044;9.006;2023-12-04T23:37:16;0.90;99.90
16273;DHT22;8244;50.044;9.006;2023-12-04T23:42:19;0.90;99.90
16273;DHT22;8244;50.044;9.006;2023-12-04T23:47:21;0.90;99.90
16273;DHT22;8244;50.044;9.006;2023-12-04T23:52:23;0.90;99.90
16273;DHT22;8244;50.044;9.006;2023-12-04T23:57:28;0.90;99.90
